Time;durP1;ratioP1;P1;durP2;ratioP2;P2;SDS_P1;SDS_P2;PMS_P1;PMS_P2;Temp;Humidity;BMP_temperature;BMP_pressure;BME280_temperature;BME280_humidity;BME280_pressure;Samples;Min_cycle;Max_cycle;Signal;HPM_P1;HPM_P2
2022/07/20 00:01:41;;;;;;;;;;;;;;;27.58;28.81;101073.97;5008024;28;19929;-85
2022/07/20 00:04:06;;;;;;;;;;;;;;;27.60;28.78;101078.19;5020124;28;19963;-86
2022/07/20 00:06:31;;;;;;;;;;;;;;;27.55;28.97;101072.41;5025275;28;20377;-86
2022/07/20 00:11:41;;;;;;;;;;;;;;;27.41;29.01;101083.94;5020628;28;19939;-86
2022/07/20 00:14:06;;;;;;;;;;;;;;;27.36;29.04;101075.44;5020954;28;20396;-86
2022/07/20 00:16:33;;;;;;;;;;;;;;;27.28;29.66;101073.56;5026035;28;20415;-85
2022/07/20 00:18:58;;;;;;;;;;;;;;;27.22;30.06;101071.47;5023875;28;20067;-86
2022/07/20 00:21:23;;;;;;;;;;;;;;;27.23;29.60;101072.31;5023668;28;20004;-85
2022/07/20 00:23:48;;;;;;;;;;;;;;;27.17;30.10;101071.97;5023822;28;19925;-86
2022/07/20 00:26:14;;;;;;;;;;;;;;;27.09;31.31;101073.81;5026402;28;19971;-86
2022/07/20 00:28:39;;;;;;;;;;;;;;;27.07;30.61;101078.53;5025958;28;19967;-86
2022/07/20 00:31:04;;;;;;;;;;;;;;;27.04;30.26;101073.41;5022712;28;20015;-86
2022/07/20 00:33:29;;;;;;;;;;;;;;;26.99;30.11;101071.19;5025818;28;19921;-86
2022/07/20 00:35:54;;;;;;;;;;;;;;;26.98;30.06;101071.34;5006701;28;19953;-86
2022/07/20 00:38:20;;;;;;;;;;;;;;;26.91;29.92;101065.75;5024052;28;20380;-86
2022/07/20 00:40:45;;;;;;;;;;;;;;;26.91;30.55;101065.75;5026356;28;20388;-86
2022/07/20 00:43:10;;;;;;;;;;;;;;;26.86;30.98;101060.81;5026821;28;19972;-86
2022/07/20 00:45:35;;;;;;;;;;;;;;;26.81;30.88;101071.25;5024094;28;19932;-85
2022/07/20 00:48:00;;;;;;;;;;;;;;;26.77;30.89;101075.34;5026067;28;19939;-86
2022/07/20 00:50:26;;;;;;;;;;;;;;;26.73;30.94;101108.38;5024013;28;19975;-86
2022/07/20 00:52:51;;;;;;;;;;;;;;;26.62;31.00;101125.75;5019172;28;19994;-86
2022/07/20 00:55:17;;;;;;;;;;;;;;;26.60;33.71;101079.81;5025363;28;19921;-86
2022/07/20 00:57:42;;;;;;;;;;;;;;;26.59;32.41;101072.69;5026467;28;20440;-86
2022/07/20 01:00:08;;;;;;;;;;;;;;;26.52;31.57;101082.47;5025068;28;19947;-86
2022/07/20 01:02:34;;;;;;;;;;;;;;;26.51;31.31;101090.75;5024974;28;20019;-86
2022/07/20 01:04:59;;;;;;;;;;;;;;;26.49;31.36;101109.91;5025765;28;20012;-86
2022/07/20 01:07:24;;;;;;;;;;;;;;;26.41;32.00;101093.53;5026509;28;19921;-86
2022/07/20 01:09:50;;;;;;;;;;;;;;;26.29;31.65;101103.78;5026843;28;19963;-86
2022/07/20 01:12:15;;;;;;;;;;;;;;;26.22;31.85;101100.00;5025103;28;19936;-86
2022/07/20 01:14:40;;;;;;;;;;;;;;;26.22;31.39;101118.13;5005136;28;19917;-86
2022/07/20 01:17:06;;;;;;;;;;;;;;;26.17;33.20;101113.19;5028215;28;19921;-86
2022/07/20 01:19:31;;;;;;;;;;;;;;;26.03;33.35;101111.03;5029492;28;19979;-86
2022/07/20 01:21:56;;;;;;;;;;;;;;;25.77;34.91;101100.94;5012826;28;19921;-86
2022/07/20 01:24:21;;;;;;;;;;;;;;;25.67;32.60;101119.09;5028546;28;20312;-86
2022/07/20 01:26:46;;;;;;;;;;;;;;;25.63;33.07;101114.97;5024881;28;19917;-85
2022/07/20 01:29:13;;;;;;;;;;;;;;;25.62;35.63;101106.00;5012847;28;20016;-86
2022/07/20 01:31:38;;;;;;;;;;;;;;;25.53;33.21;101112.34;5012608;28;19924;-86
2022/07/20 01:34:03;;;;;;;;;;;;;;;25.52;33.28;101102.53;5028517;28;19917;-86
2022/07/20 01:36:29;;;;;;;;;;;;;;;25.53;33.86;101104.22;5006472;28;20394;-86
2022/07/20 01:38:54;;;;;;;;;;;;;;;25.34;36.15;101109.75;5026895;28;19921;-85
2022/07/20 01:41:19;;;;;;;;;;;;;;;25.17;34.67;101095.16;5030403;28;20379;-86
2022/07/20 01:43:44;;;;;;;;;;;;;;;25.13;34.07;101101.88;5029353;28;19961;-86
2022/07/20 01:46:10;;;;;;;;;;;;;;;25.14;35.04;101090.06;5010581;28;19964;-86
2022/07/20 01:48:35;;;;;;;;;;;;;;;25.00;33.93;101085.97;5024993;28;20285;-86
2022/07/20 01:51:00;;;;;;;;;;;;;;;24.84;34.93;101089.28;5028837;28;19956;-86
2022/07/20 01:53:25;;;;;;;;;;;;;;;24.79;33.81;101091.59;5027486;28;19963;-86
2022/07/20 01:55:51;;;;;;;;;;;;;;;24.65;34.49;101089.34;5028506;28;19932;-86
2022/07/20 01:58:17;;;;;;;;;;;;;;;24.56;34.20;101092.94;5017059;28;20258;-86
2022/07/20 02:00:42;;;;;;;;;;;;;;;24.62;34.69;101092.34;5029005;28;20054;-86
2022/07/20 02:03:07;;;;;;;;;;;;;;;24.69;34.52;101096.19;5025142;28;19921;-86
2022/07/20 02:05:32;;;;;;;;;;;;;;;24.73;34.55;101099.44;5028865;28;20775;-86
2022/07/20 02:07:57;;;;;;;;;;;;;;;24.74;34.63;101096.59;5025516;28;20040;-86
2022/07/20 02:10:23;;;;;;;;;;;;;;;24.62;34.69;101100.47;5011350;28;19917;-86
2022/07/20 02:12:48;;;;;;;;;;;;;;;24.55;37.60;101104.75;5018168;28;21011;-86
2022/07/20 02:16:14;;;;;;;;;;;;;;;24.48;35.00;101111.72;5027029;28;20039;-86
2022/07/20 02:18:05;;;;;;;;;;;;;;;24.41;39.47;101130.38;5028836;28;20499;-86
2022/07/20 02:20:30;;;;;;;;;;;;;;;24.28;36.99;101141.47;5028317;28;19970;-86
2022/07/20 02:22:55;;;;;;;;;;;;;;;24.49;35.35;101129.69;5028480;28;20426;-85
2022/07/20 02:25:20;;;;;;;;;;;;;;;24.66;36.06;101139.72;5028958;28;19928;-86
2022/07/20 02:27:46;;;;;;;;;;;;;;;24.75;35.58;101143.41;5029246;28;20497;-86
2022/07/20 02:30:11;;;;;;;;;;;;;;;24.85;35.21;101133.41;5028460;28;19996;-87
2022/07/20 02:32:36;;;;;;;;;;;;;;;24.89;35.05;101132.97;5028704;28;19921;-86
2022/07/20 02:35:01;;;;;;;;;;;;;;;24.84;34.93;101142.53;5010654;28;19921;-86
2022/07/20 02:37:27;;;;;;;;;;;;;;;24.83;37.44;101135.44;5027963;28;19953;-85
2022/07/20 02:39:52;;;;;;;;;;;;;;;24.91;35.76;101131.00;5028820;28;19976;-85
2022/07/20 02:42:17;;;;;;;;;;;;;;;24.94;36.83;101133.38;5028772;28;20016;-86
2022/07/20 02:44:42;;;;;;;;;;;;;;;24.98;36.80;101143.91;5028875;28;20377;-86
2022/07/20 02:47:07;;;;;;;;;;;;;;;24.97;36.95;101143.06;5008654;28;20910;-87
2022/07/20 02:49:34;;;;;;;;;;;;;;;24.95;37.90;101142.38;5024802;28;19931;-86
2022/07/20 02:51:59;;;;;;;;;;;;;;;24.88;39.22;101150.22;5024609;28;19918;-86
2022/07/20 02:54:24;;;;;;;;;;;;;;;24.83;38.25;101144.38;5010327;28;20331;-86
2022/07/20 02:56:49;;;;;;;;;;;;;;;24.82;37.74;101148.09;5029304;28;19993;-87
2022/07/20 02:59:15;;;;;;;;;;;;;;;24.83;37.83;101140.84;5027291;28;19917;-85
2022/07/20 03:01:40;;;;;;;;;;;;;;;24.79;39.01;101139.41;5012068;28;19921;-86
2022/07/20 03:04:05;;;;;;;;;;;;;;;24.76;42.01;101137.88;5011436;28;19917;-86
2022/07/20 03:06:30;;;;;;;;;;;;;;;24.74;39.03;101141.72;5012017;28;20024;-86
2022/07/20 03:08:55;;;;;;;;;;;;;;;24.72;40.88;101149.97;5009399;28;19917;-86
2022/07/20 03:11:21;;;;;;;;;;;;;;;24.69;42.80;101158.38;5008215;28;19921;-85
2022/07/20 03:13:46;;;;;;;;;;;;;;;24.69;42.28;101155.66;5005345;28;19923;-86
2022/07/20 03:16:11;;;;;;;;;;;;;;;24.60;39.60;101149.28;5027044;28;19928;-86
2022/07/20 03:18:36;;;;;;;;;;;;;;;24.60;44.92;101156.53;5028123;28;20467;-86
2022/07/20 03:21:01;;;;;;;;;;;;;;;24.59;43.18;101157.53;5021827;28;19921;-86
2022/07/20 03:23:27;;;;;;;;;;;;;;;24.54;41.24;101149.88;5023078;28;20384;-85
2022/07/20 03:25:52;;;;;;;;;;;;;;;24.53;40.10;101155.41;5025410;28;19925;-86
2022/07/20 03:28:18;;;;;;;;;;;;;;;24.46;43.20;101160.53;5025850;28;19922;-86
2022/07/20 03:30:43;;;;;;;;;;;;;;;24.41;39.86;101171.78;5009247;28;19917;-86
2022/07/20 03:33:08;;;;;;;;;;;;;;;24.33;41.75;101170.75;5026238;28;19920;-86
2022/07/20 03:35:33;;;;;;;;;;;;;;;24.27;41.80;101182.13;5029818;28;21994;-86
2022/07/20 03:37:59;;;;;;;;;;;;;;;24.19;40.88;101177.44;5003277;28;19932;-86
2022/07/20 03:40:24;;;;;;;;;;;;;;;24.16;44.46;101194.81;5027489;28;20008;-85
2022/07/20 03:42:49;;;;;;;;;;;;;;;24.01;41.93;101206.13;5024286;28;19925;-86
2022/07/20 03:45:14;;;;;;;;;;;;;;;23.88;44.10;101195.63;5026488;28;20003;-86
2022/07/20 03:47:40;;;;;;;;;;;;;;;23.86;43.77;101211.09;5026533;28;19967;-86
2022/07/20 03:50:05;;;;;;;;;;;;;;;23.79;44.33;101213.50;5023134;28;20050;-87
2022/07/20 03:52:30;;;;;;;;;;;;;;;23.79;44.35;101213.50;5025127;28;20101;-86
2022/07/20 03:54:55;;;;;;;;;;;;;;;23.78;41.94;101228.00;5024135;28;19926;-86
2022/07/20 03:57:21;;;;;;;;;;;;;;;23.78;44.31;101232.50;5024149;28;19917;-85
2022/07/20 03:59:46;;;;;;;;;;;;;;;23.84;43.26;101237.38;5010093;28;19986;-86
2022/07/20 04:02:11;;;;;;;;;;;;;;;23.83;42.14;101244.63;5024038;28;19931;-86
2022/07/20 04:04:36;;;;;;;;;;;;;;;23.69;46.53;101245.03;5020834;28;19921;-86
2022/07/20 04:07:01;;;;;;;;;;;;;;;23.59;44.86;101244.91;5020115;28;20434;-86
2022/07/20 04:09:46;;;;;;;;;;;;;;;23.62;47.62;101255.47;5022395;28;19921;-85
2022/07/20 04:12:13;;;;;;;;;;;;;;;23.65;45.04;101251.69;5010955;28;19917;-86
2022/07/20 04:14:39;;;;;;;;;;;;;;;23.69;45.71;101255.81;5011872;28;20383;-85
2022/07/20 04:17:04;;;;;;;;;;;;;;;23.72;44.94;101257.38;5025878;28;19955;-86
2022/07/20 04:19:30;;;;;;;;;;;;;;;23.74;46.21;101261.66;5011028;28;19940;-85
2022/07/20 04:21:55;;;;;;;;;;;;;;;23.80;44.75;101262.94;5026459;28;19921;-85
2022/07/20 04:24:21;;;;;;;;;;;;;;;23.81;47.74;101268.22;5023572;28;19971;-85
2022/07/20 04:26:46;;;;;;;;;;;;;;;23.89;46.60;101272.94;5023146;28;19928;-85
2022/07/20 04:29:11;;;;;;;;;;;;;;;23.96;49.07;101270.53;5024800;28;20188;-85
2022/07/20 04:31:36;;;;;;;;;;;;;;;24.05;46.56;101273.25;5025453;28;19921;-85
2022/07/20 04:34:02;;;;;;;;;;;;;;;24.07;49.27;101275.84;5007838;28;19924;-85
2022/07/20 04:36:27;;;;;;;;;;;;;;;24.08;45.93;101274.84;5007828;28;20360;-85
2022/07/20 04:38:52;;;;;;;;;;;;;;;24.24;44.58;101268.88;5023327;28;19944;-85
2022/07/20 04:41:17;;;;;;;;;;;;;;;24.33;44.28;101287.81;5027574;28;20059;-85
2022/07/20 04:43:42;;;;;;;;;;;;;;;24.37;46.00;101288.41;5007628;28;20039;-85
2022/07/20 04:46:08;;;;;;;;;;;;;;;24.38;46.30;101290.13;5027709;28;19928;-85
2022/07/20 04:48:33;;;;;;;;;;;;;;;24.48;45.10;101287.44;5017447;28;19928;-85
2022/07/20 04:50:58;;;;;;;;;;;;;;;24.57;44.12;101300.09;5008276;28;20288;-86
2022/07/20 04:53:23;;;;;;;;;;;;;;;24.62;43.99;101301.41;5025059;28;19921;-85
2022/07/20 04:55:48;;;;;;;;;;;;;;;24.65;44.87;101305.66;5025897;28;20083;-86
2022/07/20 04:58:13;;;;;;;;;;;;;;;24.67;46.78;101299.13;5009760;28;19948;-86
2022/07/20 05:00:39;;;;;;;;;;;;;;;24.68;47.91;101310.81;5026083;28;20413;-86
2022/07/20 05:03:04;;;;;;;;;;;;;;;24.64;45.19;101312.94;5025464;28;19928;-86
2022/07/20 05:05:29;;;;;;;;;;;;;;;24.59;46.75;101306.25;5026153;28;20012;-86
2022/07/20 05:07:54;;;;;;;;;;;;;;;24.53;45.81;101306.78;5007484;28;19925;-86
2022/07/20 05:10:20;;;;;;;;;;;;;;;24.53;45.87;101301.38;5025293;28;20032;-86
2022/07/20 05:12:45;;;;;;;;;;;;;;;24.62;45.59;101303.22;5007510;28;19924;-86
2022/07/20 05:15:10;;;;;;;;;;;;;;;24.68;45.74;101308.09;5017937;28;19925;-86
2022/07/20 05:17:35;;;;;;;;;;;;;;;24.72;45.62;101303.25;5012929;28;19913;-85
2022/07/20 05:20:00;;;;;;;;;;;;;;;24.68;46.95;101287.31;5027742;28;19997;-86
2022/07/20 05:22:26;;;;;;;;;;;;;;;24.61;45.36;101302.38;5021193;28;20033;-86
2022/07/20 05:24:51;;;;;;;;;;;;;;;24.53;46.17;101302.25;5026102;28;19953;-86
2022/07/20 05:27:16;;;;;;;;;;;;;;;24.55;45.99;101307.50;5025243;28;19957;-85
2022/07/20 05:29:41;;;;;;;;;;;;;;;24.57;46.08;101297.41;5007001;28;19927;-86
2022/07/20 05:32:08;;;;;;;;;;;;;;;24.57;46.62;101311.75;5019636;28;19921;-86
2022/07/20 05:34:33;;;;;;;;;;;;;;;24.59;46.17;101342.25;5020936;28;19927;-85
2022/07/20 05:36:58;;;;;;;;;;;;;;;24.61;48.24;101345.63;5021517;28;20023;-85
2022/07/20 05:39:23;;;;;;;;;;;;;;;24.56;46.90;101347.91;5023506;28;19971;-86
2022/07/20 05:41:48;;;;;;;;;;;;;;;24.55;47.76;101348.06;5027384;28;19927;-85
2022/07/20 05:44:13;;;;;;;;;;;;;;;24.63;46.72;101350.94;5028011;28;19943;-86
2022/07/20 05:46:39;;;;;;;;;;;;;;;24.70;48.33;101354.75;5031724;28;19963;-85
2022/07/20 05:49:04;;;;;;;;;;;;;;;24.80;47.36;101361.03;5032964;28;19928;-86
2022/07/20 05:51:29;;;;;;;;;;;;;;;24.79;48.16;101375.56;5019831;28;19924;-85
2022/07/20 05:53:54;;;;;;;;;;;;;;;24.88;46.98;101377.41;5030604;28;19921;-85
2022/07/20 05:56:20;;;;;;;;;;;;;;;25.04;46.73;101384.09;5030096;28;19917;-85
2022/07/20 05:58:45;;;;;;;;;;;;;;;25.11;45.51;101379.88;5025182;28;20594;-86
2022/07/20 06:01:10;;;;;;;;;;;;;;;25.26;45.55;101378.44;5021844;28;19917;-85
2022/07/20 06:03:35;;;;;;;;;;;;;;;25.34;45.21;101383.13;5026651;28;19994;-87
2022/07/20 06:06:00;;;;;;;;;;;;;;;25.43;46.36;101396.66;5007548;28;19917;-85
2022/07/20 06:08:25;;;;;;;;;;;;;;;25.53;45.29;101403.91;5009131;28;19913;-86
2022/07/20 06:10:51;;;;;;;;;;;;;;;25.58;45.11;101407.88;5010269;28;19921;-87
2022/07/20 06:13:16;;;;;;;;;;;;;;;25.54;45.37;101408.31;5024026;28;20282;-86
2022/07/20 06:15:41;;;;;;;;;;;;;;;25.52;45.32;101413.91;5026822;28;19917;-86
2022/07/20 06:18:07;;;;;;;;;;;;;;;25.52;45.25;101422.00;5027866;28;19948;-86
2022/07/20 06:20:32;;;;;;;;;;;;;;;25.52;45.67;101423.88;5025764;28;19928;-86
2022/07/20 06:22:58;;;;;;;;;;;;;;;25.49;45.65;101429.56;5024937;28;19956;-85
2022/07/20 06:25:24;;;;;;;;;;;;;;;25.44;45.15;101448.94;5022024;28;19920;-86
2022/07/20 06:27:49;;;;;;;;;;;;;;;25.42;45.85;101450.97;5021650;28;19917;-86
2022/07/20 06:30:14;;;;;;;;;;;;;;;25.42;45.16;101459.09;5021632;28;19975;-86
2022/07/20 06:32:39;;;;;;;;;;;;;;;25.40;46.30;101453.78;5022591;28;21226;-87
2022/07/20 06:35:05;;;;;;;;;;;;;;;25.39;45.04;101462.06;5025065;28;19931;-87
2022/07/20 06:37:30;;;;;;;;;;;;;;;25.47;46.16;101455.94;5022315;28;20082;-86
2022/07/20 06:39:55;;;;;;;;;;;;;;;25.51;45.26;101465.47;5029177;28;19917;-86
2022/07/20 06:42:21;;;;;;;;;;;;;;;25.47;46.89;101492.00;5026164;28;19956;-87
2022/07/20 06:44:46;;;;;;;;;;;;;;;25.51;46.39;101500.66;5027021;28;19963;-86
2022/07/20 06:47:12;;;;;;;;;;;;;;;25.55;45.81;101502.09;5030902;28;19917;-87
2022/07/20 06:49:37;;;;;;;;;;;;;;;25.61;45.48;101504.25;5026084;28;20388;-86
2022/07/20 06:52:02;;;;;;;;;;;;;;;25.70;45.26;101519.63;5023014;28;19966;-86
2022/07/20 06:54:29;;;;;;;;;;;;;;;25.76;45.45;101529.06;5025204;28;20298;-86
2022/07/20 06:56:54;;;;;;;;;;;;;;;25.76;45.73;101524.50;5023206;28;20020;-86
2022/07/20 06:59:20;;;;;;;;;;;;;;;25.77;44.76;101517.22;5021967;28;20019;-86
2022/07/20 07:01:45;;;;;;;;;;;;;;;25.81;45.81;101515.94;5031838;28;20364;-86
2022/07/20 07:04:10;;;;;;;;;;;;;;;25.84;45.18;101529.22;5010647;28;19921;-86
2022/07/20 07:06:35;;;;;;;;;;;;;;;25.90;45.76;101526.78;5028601;28;19917;-86
2022/07/20 07:09:01;;;;;;;;;;;;;;;25.93;45.60;101526.50;5022061;28;19925;-85
2022/07/20 07:11:26;;;;;;;;;;;;;;;25.94;45.24;101525.47;5028388;28;20040;-86
2022/07/20 07:13:51;;;;;;;;;;;;;;;26.13;46.16;101529.16;5028659;28;20359;-85
2022/07/20 07:16:17;;;;;;;;;;;;;;;26.29;44.51;101537.53;5009916;28;19913;-84
2022/07/20 07:18:42;;;;;;;;;;;;;;;26.26;44.75;101512.59;5028358;28;20292;-85
2022/07/20 07:21:07;;;;;;;;;;;;;;;26.28;45.21;101516.84;5027508;28;19948;-86
2022/07/20 07:23:32;;;;;;;;;;;;;;;26.25;44.66;101514.41;5026519;28;19925;-85
2022/07/20 07:25:57;;;;;;;;;;;;;;;26.36;43.94;101532.38;5016730;28;20001;-85
2022/07/20 07:28:23;;;;;;;;;;;;;;;26.55;44.63;101532.34;5029046;28;19962;-85
2022/07/20 07:30:51;;;;;;;;;;;;;;;26.78;43.77;101537.38;5026143;28;20364;-85
2022/07/20 07:33:17;;;;;;;;;;;;;;;26.99;43.54;101556.97;5012653;28;19917;-85
2022/07/20 07:35:42;;;;;;;;;;;;;;;27.10;43.07;101564.97;5009855;28;19924;-84
2022/07/20 07:38:07;;;;;;;;;;;;;;;27.19;43.27;101569.47;5027220;28;19929;-85
2022/07/20 07:40:32;;;;;;;;;;;;;;;27.26;43.01;101577.00;5028831;28;19917;-86
2022/07/20 07:42:58;;;;;;;;;;;;;;;27.21;42.97;101585.59;5028259;28;20369;-85
2022/07/20 07:45:23;;;;;;;;;;;;;;;27.13;43.68;101590.94;5028371;28;20011;-85
2022/07/20 07:47:48;;;;;;;;;;;;;;;27.44;43.01;101595.03;5030048;28;19917;-84
2022/07/20 07:50:14;;;;;;;;;;;;;;;27.96;42.47;101595.22;5025803;28;19917;-84
2022/07/20 07:52:39;;;;;;;;;;;;;;;28.21;41.35;101601.75;5026295;28;19965;-85
2022/07/20 07:55:04;;;;;;;;;;;;;;;28.40;41.02;101611.59;5010699;28;19928;-84
2022/07/20 07:57:30;;;;;;;;;;;;;;;28.60;40.46;101608.66;5027407;28;20337;-84
2022/07/20 07:59:55;;;;;;;;;;;;;;;28.71;40.09;101602.94;5025049;28;19933;-84
2022/07/20 08:02:20;;;;;;;;;;;;;;;28.96;40.24;101601.22;5021407;28;19966;-85
2022/07/20 08:04:46;;;;;;;;;;;;;;;29.24;39.74;101593.69;5009607;28;20377;-85
2022/07/20 08:07:11;;;;;;;;;;;;;;;29.40;38.98;101585.53;5007484;28;19917;-83
2022/07/20 08:09:36;;;;;;;;;;;;;;;29.71;38.75;101571.31;5010933;28;19998;-85
2022/07/20 08:12:02;;;;;;;;;;;;;;;30.27;38.03;101566.91;5011776;28;19925;-85
2022/07/20 08:14:27;;;;;;;;;;;;;;;30.48;36.81;101559.00;5027307;28;21426;-86
2022/07/20 08:16:52;;;;;;;;;;;;;;;31.04;36.97;101561.72;5025775;28;19925;-85
2022/07/20 08:19:17;;;;;;;;;;;;;;;31.57;35.31;101565.56;5028890;28;20461;-86
2022/07/20 08:21:42;;;;;;;;;;;;;;;31.69;35.36;101550.41;5008104;28;19927;-85
2022/07/20 08:24:08;;;;;;;;;;;;;;;31.74;34.29;101558.06;5027028;28;19927;-85
2022/07/20 08:26:33;;;;;;;;;;;;;;;32.00;34.71;101560.44;5028034;28;19917;-84
2022/07/20 08:28:58;;;;;;;;;;;;;;;31.94;34.02;101564.78;5025335;28;19917;-85
2022/07/20 08:31:23;;;;;;;;;;;;;;;31.97;34.17;101575.31;5008425;28;19925;-84
2022/07/20 08:33:49;;;;;;;;;;;;;;;32.13;33.01;101582.56;5025007;28;19925;-84
2022/07/20 08:36:14;;;;;;;;;;;;;;;31.91;33.28;101584.28;5027644;28;19996;-85
2022/07/20 08:38:39;;;;;;;;;;;;;;;31.64;34.58;101585.66;5021540;28;19955;-85
2022/07/20 08:41:06;;;;;;;;;;;;;;;31.47;34.60;101592.25;5022744;28;19921;-85
2022/07/20 08:43:32;;;;;;;;;;;;;;;31.60;34.38;101594.38;5021535;28;20032;-85
2022/07/20 08:45:57;;;;;;;;;;;;;;;31.37;34.07;101595.22;5024506;28;20016;-85
2022/07/20 08:48:22;;;;;;;;;;;;;;;30.99;35.24;101594.19;5022057;28;19975;-84
2022/07/20 08:50:48;;;;;;;;;;;;;;;31.42;34.67;101597.41;5009077;28;19952;-85
2022/07/20 08:53:13;;;;;;;;;;;;;;;32.18;32.74;101593.78;5023425;28;19921;-84
2022/07/20 08:55:39;;;;;;;;;;;;;;;32.69;32.13;101588.50;5028620;28;19917;-86
2022/07/20 08:58:04;;;;;;;;;;;;;;;33.43;30.88;101585.69;5020305;28;19979;-85
2022/07/20 09:00:29;;;;;;;;;;;;;;;33.76;30.86;101580.56;5027041;28;20009;-84
2022/07/20 09:02:56;;;;;;;;;;;;;;;34.05;30.24;101544.97;5024228;28;20024;-84
2022/07/20 09:05:23;;;;;;;;;;;;;;;34.12;30.29;101529.38;5027874;28;19921;-84
2022/07/20 09:07:49;;;;;;;;;;;;;;;33.96;30.35;101552.47;5024324;28;19955;-84
2022/07/20 09:10:19;;;;;;;;;;;;;;;33.21;31.03;101562.88;5026998;28;19921;-85
2022/07/20 09:12:58;;;;;;;;;;;;;;;32.69;31.59;101590.38;5010151;28;19924;-85
2022/07/20 09:15:29;;;;;;;;;;;;;;;32.57;32.00;101600.09;5027659;28;19988;-84
2022/07/20 09:18:10;;;;;;;;;;;;;;;32.83;31.53;101616.94;5006155;28;19921;-84
2022/07/20 09:20:36;;;;;;;;;;;;;;;33.18;31.25;101629.00;5007598;28;19964;-85
2022/07/20 09:23:10;;;;;;;;;;;;;;;32.84;31.56;101628.72;5023991;28;20380;-85
2022/07/20 09:25:35;;;;;;;;;;;;;;;32.42;32.31;101628.31;5026889;28;19923;-84
2022/07/20 09:28:00;;;;;;;;;;;;;;;32.25;32.13;101668.63;5025106;28;19921;-85
2022/07/20 09:30:26;;;;;;;;;;;;;;;32.52;32.16;101679.22;5008810;28;19919;-84
2022/07/20 09:32:59;;;;;;;;;;;;;;;32.79;32.25;101670.38;5011514;28;19921;-84
2022/07/20 09:35:26;;;;;;;;;;;;;;;32.86;32.16;101654.88;5026098;28;20377;-85
2022/07/20 09:37:54;;;;;;;;;;;;;;;32.68;32.02;101666.19;5029032;28;20330;-85
2022/07/20 09:40:19;;;;;;;;;;;;;;;32.67;32.13;101650.81;5013108;28;19925;-85
2022/07/20 09:42:46;;;;;;;;;;;;;;;32.56;32.31;101659.50;5029341;28;19928;-84
2022/07/20 09:45:29;;;;;;;;;;;;;;;32.65;32.35;101649.31;5027533;28;19939;-84
2022/07/20 09:48:01;;;;;;;;;;;;;;;32.77;32.33;101639.56;5010702;28;19927;-84
2022/07/20 09:50:27;;;;;;;;;;;;;;;33.07;31.95;101639.63;5027913;28;20377;-84
2022/07/20 09:52:53;;;;;;;;;;;;;;;33.08;32.10;101644.06;5029406;28;20277;-84
2022/07/20 09:55:18;;;;;;;;;;;;;;;32.81;31.67;101629.94;5011560;28;19928;-84
2022/07/20 09:57:43;;;;;;;;;;;;;;;32.96;32.23;101621.75;5021695;28;19917;-84
2022/07/20 10:00:09;;;;;;;;;;;;;;;33.10;31.32;101629.09;5027312;28;19921;-85
2022/07/20 10:02:37;;;;;;;;;;;;;;;33.10;31.92;101618.16;5025575;28;20008;-84
2022/07/20 10:05:03;;;;;;;;;;;;;;;33.43;30.90;101624.06;5028505;28;19917;-84
2022/07/20 10:07:29;;;;;;;;;;;;;;;33.78;31.24;101634.38;5022907;28;19922;-85
2022/07/20 10:09:54;;;;;;;;;;;;;;;33.89;30.83;101648.41;5028482;28;19919;-84
2022/07/20 10:12:20;;;;;;;;;;;;;;;33.62;31.00;101658.28;5025940;28;19917;-85
2022/07/20 10:14:46;;;;;;;;;;;;;;;33.29;30.83;101654.22;5015214;28;20300;-84
2022/07/20 10:17:11;;;;;;;;;;;;;;;33.08;31.76;101655.03;5025241;28;20377;-84
2022/07/20 10:19:41;;;;;;;;;;;;;;;33.31;31.50;101658.47;5015568;28;19923;-84
2022/07/20 10:22:08;;;;;;;;;;;;;;;33.42;31.28;101652.50;5023926;28;20440;-84
2022/07/20 10:24:35;;;;;;;;;;;;;;;33.33;30.71;101650.91;5024900;28;19963;-83
2022/07/20 10:27:19;;;;;;;;;;;;;;;33.04;31.84;101649.06;5029880;28;19967;-84
2022/07/20 10:29:45;;;;;;;;;;;;;;;32.25;31.94;101643.16;5024733;28;19949;-85
2022/07/20 10:32:14;;;;;;;;;;;;;;;31.49;32.63;101653.06;5023111;28;19924;-84
2022/07/20 10:34:39;;;;;;;;;;;;;;;31.31;33.55;101656.06;5003929;28;19991;-84
2022/07/20 10:37:25;;;;;;;;;;;;;;;31.45;33.01;101658.03;5023782;28;19963;-83
2022/07/20 10:39:52;;;;;;;;;;;;;;;32.24;31.97;101649.66;5025428;28;20421;-83
2022/07/20 10:42:20;;;;;;;;;;;;;;;32.87;30.92;101645.63;5025403;28;20372;-84
2022/07/20 10:44:45;;;;;;;;;;;;;;;33.49;30.62;101636.19;5028811;28;19917;-84
2022/07/20 10:47:29;;;;;;;;;;;;;;;33.80;30.05;101635.84;5004544;28;19967;-84
2022/07/20 10:49:58;;;;;;;;;;;;;;;34.00;29.44;101631.47;5023243;28;19925;-85
2022/07/20 10:52:28;;;;;;;;;;;;;;;34.03;29.95;101623.88;5025081;28;19963;-85
2022/07/20 10:54:53;;;;;;;;;;;;;;;34.07;30.04;101619.69;5024367;28;19921;-83
2022/07/20 10:57:20;;;;;;;;;;;;;;;33.84;29.92;101619.88;5026768;28;20427;-85
2022/07/20 10:59:45;;;;;;;;;;;;;;;34.00;30.07;101625.13;5030351;28;20438;-85
2022/07/20 11:02:11;;;;;;;;;;;;;;;34.38;29.27;101639.38;5015577;28;20011;-85
2022/07/20 11:04:42;;;;;;;;;;;;;;;34.24;29.70;101643.09;5031338;28;20011;-85
2022/07/20 11:07:07;;;;;;;;;;;;;;;34.72;29.00;101646.84;5030595;28;19924;-86
2022/07/20 11:09:32;;;;;;;;;;;;;;;34.98;28.34;101639.84;5025630;28;19947;-85
2022/07/20 11:11:57;;;;;;;;;;;;;;;34.76;29.00;101650.88;5024063;28;19913;-85
2022/07/20 11:14:22;;;;;;;;;;;;;;;34.77;28.39;101640.75;5023593;28;20063;-86
2022/07/20 11:16:53;;;;;;;;;;;;;;;34.83;28.69;101637.19;5024968;28;19929;-85
2022/07/20 11:19:18;;;;;;;;;;;;;;;34.69;28.65;101624.41;5023591;28;19931;-87
2022/07/20 11:21:44;;;;;;;;;;;;;;;34.93;28.92;101625.84;5025192;28;19928;-86
2022/07/20 11:24:20;;;;;;;;;;;;;;;34.79;28.18;101627.66;5029977;28;20592;-85
2022/07/20 11:26:45;;;;;;;;;;;;;;;34.92;28.33;101624.97;5026778;28;20008;-85
2022/07/20 11:29:14;;;;;;;;;;;;;;;35.20;28.16;101643.31;5003203;28;20043;-86
2022/07/20 11:31:39;;;;;;;;;;;;;;;35.47;27.61;101631.41;5026115;28;20451;-85
2022/07/20 11:34:04;;;;;;;;;;;;;;;35.54;27.85;101630.59;5028964;28;20263;-85
2022/07/20 11:36:30;;;;;;;;;;;;;;;35.74;27.87;101618.56;5026750;28;20011;-85
2022/07/20 11:39:00;;;;;;;;;;;;;;;35.66;27.76;101626.16;5031544;28;19927;-84
2022/07/20 11:41:32;;;;;;;;;;;;;;;35.57;27.72;101619.16;5028710;28;19967;-85
2022/07/20 11:43:58;;;;;;;;;;;;;;;35.64;28.10;101617.28;5028117;28;20409;-85
2022/07/20 11:46:25;;;;;;;;;;;;;;;35.83;27.26;101619.22;5027880;28;19959;-84
2022/07/20 11:48:54;;;;;;;;;;;;;;;35.58;26.67;101620.84;5022681;28;19917;-84
2022/07/20 11:51:20;;;;;;;;;;;;;;;35.36;27.82;101623.72;5026318;28;19917;-84
2022/07/20 11:53:45;;;;;;;;;;;;;;;35.52;27.78;101617.88;5030135;28;19913;-84
2022/07/20 11:56:12;;;;;;;;;;;;;;;35.60;27.51;101616.00;5030425;28;19921;-84
2022/07/20 11:58:38;;;;;;;;;;;;;;;35.96;27.14;101613.75;5030070;28;19978;-85
2022/07/20 12:01:05;;;;;;;;;;;;;;;36.26;27.22;101624.34;5032795;28;20384;-84
2022/07/20 12:03:31;;;;;;;;;;;;;;;36.37;26.80;101629.19;5025358;28;20458;-84
2022/07/20 12:05:59;;;;;;;;;;;;;;;36.20;26.12;101637.06;5025329;28;20006;-86
2022/07/20 12:08:24;;;;;;;;;;;;;;;35.98;25.81;101630.91;5030305;28;19917;-85
2022/07/20 12:10:50;;;;;;;;;;;;;;;35.57;26.35;101642.00;5027344;28;20371;-85
2022/07/20 12:13:16;;;;;;;;;;;;;;;35.75;26.46;101634.00;5025547;28;20470;-85
2022/07/20 12:15:50;;;;;;;;;;;;;;;36.10;26.28;101627.53;5025137;28;19921;-84
2022/07/20 12:18:30;;;;;;;;;;;;;;;36.52;25.40;101642.81;5020001;28;19924;-85
2022/07/20 12:20:59;;;;;;;;;;;;;;;36.56;25.89;101627.53;5027823;28;20008;-85
2022/07/20 12:23:25;;;;;;;;;;;;;;;36.37;25.32;101626.44;5023278;28;19929;-87
2022/07/20 12:25:52;;;;;;;;;;;;;;;36.52;25.15;101632.63;5027390;28;20676;-86
2022/07/20 12:28:26;;;;;;;;;;;;;;;36.43;25.22;101633.06;5023695;28;19917;-85
2022/07/20 12:30:51;;;;;;;;;;;;;;;36.24;25.79;101615.47;5030422;28;19932;-86
2022/07/20 12:33:17;;;;;;;;;;;;;;;36.25;25.69;101626.25;5029868;28;19925;-86